LZIB

M. R. Štefánik Airport

Bratislava, Slovakia (Slovak Republic)
METAR LZIB 202330Z 29009KT CAVOK 27/13 Q1015
Observed Flight Rules
Aug-20 @ 23:30 UTC (36 minutes ago) Visual Flight Rules
Wind Visibility Clouds
290° at 9 knots 10,000+ meters
  • Clear skies
Temperatures Readings
Current 27°C / 81°F
Dewpoint 13°C / 55°F
Humidity 42%
Altimeter 29.97" Hg
Pressure 1015 hPa
Elevation 134
METAR LZIB 202330Z 29009KT CAVOK 27/13 Q1015
Observed Flight Rules
Aug-20 @ 23:30 UTC
(36 minutes ago)
VFR
Wind Visibility
290° at 9 knots 10,000+ meters
Clouds
  • Clear skies
Temperature Dewpoint
27°C / 81°F 13°C / 55°F
Humidity Altimeter Pressure
42% 29.97" Hg 1015 hPa